sensor_id;sensor_type;location;lat;lon;timestamp;pressure;altitude;pressure_sealevel;temperature;humidity
62946;BME280;52164;52.212;-1.010;2023-02-28T00:00:04;102428.41;;;4.48;74.90
62946;BME280;52164;52.212;-1.010;2023-02-28T00:02:34;102429.28;;;4.47;74.91
62946;BME280;52164;52.212;-1.010;2023-02-28T00:05:00;102435.79;;;4.47;74.86
62946;BME280;52164;52.212;-1.010;2023-02-28T00:07:28;102436.33;;;4.47;75.10
62946;BME280;52164;52.212;-1.010;2023-02-28T00:09:54;102440.38;;;4.47;74.81
62946;BME280;52164;52.212;-1.010;2023-02-28T00:12:19;102448.80;;;4.46;74.88
62946;BME280;52164;52.212;-1.010;2023-02-28T00:14:44;102448.23;;;4.45;75.02
62946;BME280;52164;52.212;-1.010;2023-02-28T00:17:09;102446.79;;;4.45;75.26
62946;BME280;52164;52.212;-1.010;2023-02-28T00:19:35;102445.70;;;4.44;75.16
62946;BME280;52164;52.212;-1.010;2023-02-28T00:22:00;102447.77;;;4.46;75.45
62946;BME280;52164;52.212;-1.010;2023-02-28T00:24:25;102449.91;;;4.50;75.92
62946;BME280;52164;52.212;-1.010;2023-02-28T00:26:51;102445.61;;;4.52;75.89
62946;BME280;52164;52.212;-1.010;2023-02-28T00:29:16;102448.80;;;4.52;75.49
62946;BME280;52164;52.212;-1.010;2023-02-28T00:31:41;102452.98;;;4.51;75.76
62946;BME280;52164;52.212;-1.010;2023-02-28T00:34:06;102450.06;;;4.49;75.77
62946;BME280;52164;52.212;-1.010;2023-02-28T00:36:32;102451.02;;;4.47;75.75
62946;BME280;52164;52.212;-1.010;2023-02-28T00:38:57;102453.05;;;4.46;75.63
62946;BME280;52164;52.212;-1.010;2023-02-28T00:41:22;102453.23;;;4.43;75.89
62946;BME280;52164;52.212;-1.010;2023-02-28T00:43:48;102453.92;;;4.39;75.92
62946;BME280;52164;52.212;-1.010;2023-02-28T00:46:13;102456.41;;;4.36;75.95
62946;BME280;52164;52.212;-1.010;2023-02-28T00:48:38;102454.70;;;4.31;75.93
62946;BME280;52164;52.212;-1.010;2023-02-28T00:51:04;102453.25;;;4.24;75.94
62946;BME280;52164;52.212;-1.010;2023-02-28T00:53:29;102453.30;;;4.19;76.16
62946;BME280;52164;52.212;-1.010;2023-02-28T00:55:55;102458.90;;;4.15;75.76
62946;BME280;52164;52.212;-1.010;2023-02-28T00:58:20;102457.34;;;4.12;76.01
62946;BME280;52164;52.212;-1.010;2023-02-28T01:00:45;102460.02;;;4.10;76.30
62946;BME280;52164;52.212;-1.010;2023-02-28T01:03:14;102460.29;;;4.08;76.47
62946;BME280;52164;52.212;-1.010;2023-02-28T01:05:39;102462.45;;;4.09;76.58
62946;BME280;52164;52.212;-1.010;2023-02-28T01:08:06;102461.76;;;4.09;76.85
62946;BME280;52164;52.212;-1.010;2023-02-28T01:10:32;102462.00;;;4.10;76.65
62946;BME280;52164;52.212;-1.010;2023-02-28T01:12:57;102460.38;;;4.10;76.61
62946;BME280;52164;52.212;-1.010;2023-02-28T01:15:22;102460.69;;;4.09;76.76
62946;BME280;52164;52.212;-1.010;2023-02-28T01:17:48;102463.34;;;4.09;76.53
62946;BME280;52164;52.212;-1.010;2023-02-28T01:20:13;102460.99;;;4.08;76.57
62946;BME280;52164;52.212;-1.010;2023-02-28T01:22:38;102466.79;;;4.11;76.79
62946;BME280;52164;52.212;-1.010;2023-02-28T01:25:03;102470.94;;;4.12;76.50
62946;BME280;52164;52.212;-1.010;2023-02-28T01:27:30;102474.41;;;4.14;76.85
62946;BME280;52164;52.212;-1.010;2023-02-28T01:29:55;102471.83;;;4.15;76.43
62946;BME280;52164;52.212;-1.010;2023-02-28T01:32:20;102474.86;;;4.19;76.90
62946;BME280;52164;52.212;-1.010;2023-02-28T01:34:46;102478.64;;;4.23;76.97
62946;BME280;52164;52.212;-1.010;2023-02-28T01:37:11;102472.08;;;4.29;77.15
62946;BME280;52164;52.212;-1.010;2023-02-28T01:39:36;102472.44;;;4.35;77.29
62946;BME280;52164;52.212;-1.010;2023-02-28T01:42:08;102472.05;;;4.41;77.27
62946;BME280;52164;52.212;-1.010;2023-02-28T01:45:38;102474.02;;;4.48;77.36
62946;BME280;52164;52.212;-1.010;2023-02-28T01:47:19;102474.31;;;4.53;77.38
62946;BME280;52164;52.212;-1.010;2023-02-28T01:49:45;102475.55;;;4.59;77.25
62946;BME280;52164;52.212;-1.010;2023-02-28T01:52:10;102475.30;;;4.64;77.10
62946;BME280;52164;52.212;-1.010;2023-02-28T01:54:39;102473.59;;;4.69;77.07
62946;BME280;52164;52.212;-1.010;2023-02-28T01:57:06;102471.70;;;4.72;77.13
62946;BME280;52164;52.212;-1.010;2023-02-28T01:59:34;102469.23;;;4.76;77.05
62946;BME280;52164;52.212;-1.010;2023-02-28T02:02:01;102470.67;;;4.80;77.00
62946;BME280;52164;52.212;-1.010;2023-02-28T02:04:27;102469.90;;;4.82;77.04
62946;BME280;52164;52.212;-1.010;2023-02-28T02:06:57;102471.91;;;4.84;76.81
62946;BME280;52164;52.212;-1.010;2023-02-28T02:09:23;102475.33;;;4.84;77.07
62946;BME280;52164;52.212;-1.010;2023-02-28T02:11:48;102476.30;;;4.86;76.81
62946;BME280;52164;52.212;-1.010;2023-02-28T02:14:18;102479.84;;;4.86;76.84
62946;BME280;52164;52.212;-1.010;2023-02-28T02:24:22;102480.64;;;4.85;76.72
62946;BME280;52164;52.212;-1.010;2023-02-28T02:28:21;102475.70;;;4.81;76.74
62946;BME280;52164;52.212;-1.010;2023-02-28T02:30:05;102475.77;;;4.79;76.74
62946;BME280;52164;52.212;-1.010;2023-02-28T02:32:49;102476.81;;;4.75;76.89
62946;BME280;52164;52.212;-1.010;2023-02-28T02:35:25;102473.71;;;4.74;76.91
62946;BME280;52164;52.212;-1.010;2023-02-28T02:37:57;102473.61;;;4.72;76.91
62946;BME280;52164;52.212;-1.010;2023-02-28T02:40:26;102472.95;;;4.70;77.19
62946;BME280;52164;52.212;-1.010;2023-02-28T02:42:56;102469.14;;;4.68;77.17
62946;BME280;52164;52.212;-1.010;2023-02-28T02:45:28;102461.18;;;4.65;77.24
62946;BME280;52164;52.212;-1.010;2023-02-28T02:48:00;102460.41;;;4.64;77.19
62946;BME280;52164;52.212;-1.010;2023-02-28T02:50:29;102460.70;;;4.62;77.50
62946;BME280;52164;52.212;-1.010;2023-02-28T02:52:56;102457.61;;;4.61;77.53
62946;BME280;52164;52.212;-1.010;2023-02-28T02:55:23;102453.15;;;4.60;77.46
62946;BME280;52164;52.212;-1.010;2023-02-28T02:57:51;102447.05;;;4.59;77.49
62946;BME280;52164;52.212;-1.010;2023-02-28T03:00:18;102447.38;;;4.58;77.64
62946;BME280;52164;52.212;-1.010;2023-02-28T03:02:45;102449.98;;;4.57;77.65
62946;BME280;52164;52.212;-1.010;2023-02-28T03:05:17;102447.66;;;4.57;77.71
62946;BME280;52164;52.212;-1.010;2023-02-28T03:07:43;102446.27;;;4.57;77.81
62946;BME280;52164;52.212;-1.010;2023-02-28T03:10:42;102448.61;;;4.57;77.97
62946;BME280;52164;52.212;-1.010;2023-02-28T03:12:58;102443.36;;;4.59;77.92
62946;BME280;52164;52.212;-1.010;2023-02-28T03:15:27;102443.41;;;4.60;77.65
62946;BME280;52164;52.212;-1.010;2023-02-28T03:20:31;102447.77;;;4.65;77.85
62946;BME280;52164;52.212;-1.010;2023-02-28T03:23:07;102449.16;;;4.68;78.08
62946;BME280;52164;52.212;-1.010;2023-02-28T03:31:00;102454.06;;;4.80;78.05
62946;BME280;52164;52.212;-1.010;2023-02-28T03:33:13;102448.20;;;4.83;77.63
62946;BME280;52164;52.212;-1.010;2023-02-28T03:35:42;102451.91;;;4.86;77.80
62946;BME280;52164;52.212;-1.010;2023-02-28T03:38:14;102450.08;;;4.88;77.58
62946;BME280;52164;52.212;-1.010;2023-02-28T03:40:41;102447.52;;;4.90;77.29
62946;BME280;52164;52.212;-1.010;2023-02-28T03:43:12;102447.12;;;4.89;77.33
62946;BME280;52164;52.212;-1.010;2023-02-28T03:45:39;102446.75;;;4.89;77.13
62946;BME280;52164;52.212;-1.010;2023-02-28T03:48:08;102447.10;;;4.89;77.29
62946;BME280;52164;52.212;-1.010;2023-02-28T03:50:38;102440.45;;;4.90;77.36
62946;BME280;52164;52.212;-1.010;2023-02-28T03:53:15;102438.05;;;4.92;77.13
62946;BME280;52164;52.212;-1.010;2023-02-28T03:55:42;102440.39;;;4.92;77.30
62946;BME280;52164;52.212;-1.010;2023-02-28T04:00:21;102447.52;;;4.93;77.14
62946;BME280;52164;52.212;-1.010;2023-02-28T04:00:56;102445.38;;;4.93;76.91
62946;BME280;52164;52.212;-1.010;2023-02-28T04:03:23;102442.51;;;4.92;76.80
62946;BME280;52164;52.212;-1.010;2023-02-28T04:05:50;102446.27;;;4.90;76.70
62946;BME280;52164;52.212;-1.010;2023-02-28T04:08:17;102446.12;;;4.87;76.59
62946;BME280;52164;52.212;-1.010;2023-02-28T04:10:43;102443.27;;;4.84;76.74
62946;BME280;52164;52.212;-1.010;2023-02-28T04:13:10;102442.98;;;4.81;77.20
62946;BME280;52164;52.212;-1.010;2023-02-28T04:15:35;102448.66;;;4.78;77.05
62946;BME280;52164;52.212;-1.010;2023-02-28T04:18:01;102451.85;;;4.75;76.80
62946;BME280;52164;52.212;-1.010;2023-02-28T04:20:27;102448.52;;;4.72;77.02
62946;BME280;52164;52.212;-1.010;2023-02-28T04:22:52;102451.74;;;4.70;77.21
62946;BME280;52164;52.212;-1.010;2023-02-28T04:25:18;102448.31;;;4.66;77.42
62946;BME280;52164;52.212;-1.010;2023-02-28T04:27:43;102453.44;;;4.62;77.40
62946;BME280;52164;52.212;-1.010;2023-02-28T04:30:10;102454.86;;;4.59;77.60
62946;BME280;52164;52.212;-1.010;2023-02-28T04:32:39;102455.20;;;4.56;77.57
62946;BME280;52164;52.212;-1.010;2023-02-28T04:35:04;102456.86;;;4.54;77.74
62946;BME280;52164;52.212;-1.010;2023-02-28T04:37:29;102457.36;;;4.53;78.03
62946;BME280;52164;52.212;-1.010;2023-02-28T04:39:55;102459.79;;;4.52;77.84
62946;BME280;52164;52.212;-1.010;2023-02-28T04:42:20;102462.55;;;4.51;78.07
62946;BME280;52164;52.212;-1.010;2023-02-28T04:44:46;102463.21;;;4.50;78.21
62946;BME280;52164;52.212;-1.010;2023-02-28T04:47:12;102469.90;;;4.50;78.18
62946;BME280;52164;52.212;-1.010;2023-02-28T04:49:37;102469.66;;;4.49;78.22
62946;BME280;52164;52.212;-1.010;2023-02-28T04:52:03;102468.38;;;4.48;78.24
62946;BME280;52164;52.212;-1.010;2023-02-28T04:54:28;102468.77;;;4.49;78.51
62946;BME280;52164;52.212;-1.010;2023-02-28T04:56:54;102473.23;;;4.49;78.32
62946;BME280;52164;52.212;-1.010;2023-02-28T04:59:19;102475.56;;;4.50;78.09
62946;BME280;52164;52.212;-1.010;2023-02-28T05:01:46;102472.55;;;4.50;78.35
62946;BME280;52164;52.212;-1.010;2023-02-28T05:04:12;102470.55;;;4.52;78.16
62946;BME280;52164;52.212;-1.010;2023-02-28T05:06:37;102471.89;;;4.54;78.22
62946;BME280;52164;52.212;-1.010;2023-02-28T05:09:03;102475.20;;;4.56;78.39
62946;BME280;52164;52.212;-1.010;2023-02-28T05:11:29;102473.61;;;4.59;78.39
62946;BME280;52164;52.212;-1.010;2023-02-28T05:13:59;102472.19;;;4.63;78.24
62946;BME280;52164;52.212;-1.010;2023-02-28T05:16:24;102477.73;;;4.66;78.41
62946;BME280;52164;52.212;-1.010;2023-02-28T05:18:50;102477.94;;;4.70;78.43
62946;BME280;52164;52.212;-1.010;2023-02-28T05:21:22;102482.98;;;4.75;78.20
62946;BME280;52164;52.212;-1.010;2023-02-28T05:23:49;102477.23;;;4.80;78.17
62946;BME280;52164;52.212;-1.010;2023-02-28T05:26:14;102472.77;;;4.86;78.08
62946;BME280;52164;52.212;-1.010;2023-02-28T05:28:39;102474.08;;;4.90;77.80
62946;BME280;52164;52.212;-1.010;2023-02-28T05:31:05;102476.04;;;4.94;77.93
62946;BME280;52164;52.212;-1.010;2023-02-28T05:33:32;102473.98;;;4.92;77.73
62946;BME280;52164;52.212;-1.010;2023-02-28T05:35:57;102479.92;;;4.97;77.80
62946;BME280;52164;52.212;-1.010;2023-02-28T05:38:23;102481.14;;;5.00;77.59
62946;BME280;52164;52.212;-1.010;2023-02-28T05:40:48;102481.38;;;5.01;77.48
62946;BME280;52164;52.212;-1.010;2023-02-28T05:43:13;102483.34;;;5.01;77.56
62946;BME280;52164;52.212;-1.010;2023-02-28T05:45:38;102480.91;;;5.02;77.56
62946;BME280;52164;52.212;-1.010;2023-02-28T05:48:04;102474.00;;;4.99;77.30
62946;BME280;52164;52.212;-1.010;2023-02-28T05:50:29;102477.48;;;5.01;77.14
62946;BME280;52164;52.212;-1.010;2023-02-28T05:52:54;102478.25;;;4.99;77.29
62946;BME280;52164;52.212;-1.010;2023-02-28T05:55:20;102480.10;;;4.97;77.06
62946;BME280;52164;52.212;-1.010;2023-02-28T05:57:45;102480.20;;;4.95;77.11
62946;BME280;52164;52.212;-1.010;2023-02-28T06:00:11;102484.59;;;4.95;77.08
62946;BME280;52164;52.212;-1.010;2023-02-28T06:02:37;102488.53;;;4.93;77.21
62946;BME280;52164;52.212;-1.010;2023-02-28T06:05:03;102487.98;;;4.89;77.10
62946;BME280;52164;52.212;-1.010;2023-02-28T06:07:28;102492.60;;;4.86;77.10
62946;BME280;52164;52.212;-1.010;2023-02-28T06:09:53;102492.23;;;4.83;77.05
62946;BME280;52164;52.212;-1.010;2023-02-28T06:12:19;102497.08;;;4.81;77.18
62946;BME280;52164;52.212;-1.010;2023-02-28T06:14:44;102494.75;;;4.80;77.25
62946;BME280;52164;52.212;-1.010;2023-02-28T06:17:12;102495.38;;;4.79;77.13
62946;BME280;52164;52.212;-1.010;2023-02-28T06:19:37;102499.88;;;4.77;77.51
62946;BME280;52164;52.212;-1.010;2023-02-28T06:22:04;102504.11;;;4.77;77.44
62946;BME280;52164;52.212;-1.010;2023-02-28T06:24:29;102506.02;;;4.76;77.57
62946;BME280;52164;52.212;-1.010;2023-02-28T06:26:56;102506.44;;;4.74;77.24
62946;BME280;52164;52.212;-1.010;2023-02-28T06:29:24;102508.27;;;4.72;77.34
62946;BME280;52164;52.212;-1.010;2023-02-28T06:31:49;102508.01;;;4.70;77.07
62946;BME280;52164;52.212;-1.010;2023-02-28T06:34:14;102506.73;;;4.69;77.16
62946;BME280;52164;52.212;-1.010;2023-02-28T06:36:40;102506.19;;;4.69;77.19
62946;BME280;52164;52.212;-1.010;2023-02-28T06:39:06;102501.14;;;4.71;77.12
62946;BME280;52164;52.212;-1.010;2023-02-28T06:41:31;102503.38;;;4.73;77.03
62946;BME280;52164;52.212;-1.010;2023-02-28T06:44:02;102503.27;;;4.74;77.29
62946;BME280;52164;52.212;-1.010;2023-02-28T06:46:28;102504.08;;;4.76;77.25
62946;BME280;52164;52.212;-1.010;2023-02-28T06:48:53;102503.49;;;4.79;76.86
62946;BME280;52164;52.212;-1.010;2023-02-28T06:51:19;102502.05;;;4.81;77.05
62946;BME280;52164;52.212;-1.010;2023-02-28T06:53:47;102504.88;;;4.84;76.97
62946;BME280;52164;52.212;-1.010;2023-02-28T06:56:13;102504.84;;;4.86;77.10
62946;BME280;52164;52.212;-1.010;2023-02-28T06:58:39;102506.60;;;4.90;77.30
62946;BME280;52164;52.212;-1.010;2023-02-28T07:01:05;102507.48;;;4.93;77.19
62946;BME280;52164;52.212;-1.010;2023-02-28T07:03:31;102510.75;;;4.98;77.48
62946;BME280;52164;52.212;-1.010;2023-02-28T07:05:57;102507.00;;;5.00;77.21
62946;BME280;52164;52.212;-1.010;2023-02-28T07:08:23;102510.16;;;5.03;77.60
62946;BME280;52164;52.212;-1.010;2023-02-28T07:10:53;102511.79;;;5.07;77.39
62946;BME280;52164;52.212;-1.010;2023-02-28T07:13:18;102513.74;;;5.10;77.29
62946;BME280;52164;52.212;-1.010;2023-02-28T07:15:44;102518.45;;;5.13;77.31
62946;BME280;52164;52.212;-1.010;2023-02-28T07:18:09;102522.64;;;5.15;77.61
62946;BME280;52164;52.212;-1.010;2023-02-28T07:20:34;102522.71;;;5.16;77.48
62946;BME280;52164;52.212;-1.010;2023-02-28T07:23:00;102520.01;;;5.18;77.34
62946;BME280;52164;52.212;-1.010;2023-02-28T07:25:26;102523.44;;;5.20;77.25
62946;BME280;52164;52.212;-1.010;2023-02-28T07:27:52;102521.83;;;5.19;77.16
62946;BME280;52164;52.212;-1.010;2023-02-28T07:30:18;102520.94;;;5.19;77.01
62946;BME280;52164;52.212;-1.010;2023-02-28T07:32:43;102521.45;;;5.19;77.34
62946;BME280;52164;52.212;-1.010;2023-02-28T07:35:12;102517.52;;;5.18;77.49
62946;BME280;52164;52.212;-1.010;2023-02-28T07:37:37;102518.20;;;5.18;77.33
62946;BME280;52164;52.212;-1.010;2023-02-28T07:40:04;102517.84;;;5.18;77.40
62946;BME280;52164;52.212;-1.010;2023-02-28T07:42:32;102521.73;;;5.17;77.42
62946;BME280;52164;52.212;-1.010;2023-02-28T07:44:57;102519.41;;;5.17;77.59
62946;BME280;52164;52.212;-1.010;2023-02-28T07:47:24;102522.13;;;5.18;77.74
62946;BME280;52164;52.212;-1.010;2023-02-28T07:49:49;102518.01;;;5.17;77.54
62946;BME280;52164;52.212;-1.010;2023-02-28T07:52:14;102520.23;;;5.19;77.67
62946;BME280;52164;52.212;-1.010;2023-02-28T07:54:39;102523.02;;;5.18;77.97
62946;BME280;52164;52.212;-1.010;2023-02-28T07:57:05;102527.42;;;5.18;77.90
62946;BME280;52164;52.212;-1.010;2023-02-28T07:59:30;102532.23;;;5.18;78.07
62946;BME280;52164;52.212;-1.010;2023-02-28T08:01:56;102532.71;;;5.18;77.96
62946;BME280;52164;52.212;-1.010;2023-02-28T08:04:21;102534.46;;;5.17;77.98
62946;BME280;52164;52.212;-1.010;2023-02-28T08:06:47;102534.59;;;5.17;77.78
62946;BME280;52164;52.212;-1.010;2023-02-28T08:09:12;102531.55;;;5.16;77.84
62946;BME280;52164;52.212;-1.010;2023-02-28T08:11:38;102529.98;;;5.16;77.89
62946;BME280;52164;52.212;-1.010;2023-02-28T08:14:03;102529.86;;;5.17;77.86
62946;BME280;52164;52.212;-1.010;2023-02-28T08:16:28;102532.05;;;5.18;77.95
62946;BME280;52164;52.212;-1.010;2023-02-28T08:18:56;102531.85;;;5.21;78.46
62946;BME280;52164;52.212;-1.010;2023-02-28T08:21:22;102537.10;;;5.23;78.37
62946;BME280;52164;52.212;-1.010;2023-02-28T08:23:48;102537.19;;;5.25;78.59
62946;BME280;52164;52.212;-1.010;2023-02-28T08:26:14;102540.11;;;5.30;78.43
62946;BME280;52164;52.212;-1.010;2023-02-28T08:28:39;102535.40;;;5.35;78.47
62946;BME280;52164;52.212;-1.010;2023-02-28T08:31:13;102532.22;;;5.38;78.44
62946;BME280;52164;52.212;-1.010;2023-02-28T08:33:39;102535.17;;;5.40;78.29
62946;BME280;52164;52.212;-1.010;2023-02-28T08:36:06;102532.71;;;5.44;78.13
62946;BME280;52164;52.212;-1.010;2023-02-28T08:38:32;102531.73;;;5.49;78.29
62946;BME280;52164;52.212;-1.010;2023-02-28T08:40:58;102532.80;;;5.56;78.25
62946;BME280;52164;52.212;-1.010;2023-02-28T08:43:24;102528.59;;;5.67;78.11
62946;BME280;52164;52.212;-1.010;2023-02-28T08:45:51;102520.73;;;5.83;78.20
62946;BME280;52164;52.212;-1.010;2023-02-28T08:48:17;102514.56;;;6.03;77.82
62946;BME280;52164;52.212;-1.010;2023-02-28T08:50:42;102512.63;;;6.25;78.08
62946;BME280;52164;52.212;-1.010;2023-02-28T08:53:07;102513.95;;;6.48;77.43
62946;BME280;52164;52.212;-1.010;2023-02-28T08:55:33;102510.85;;;6.62;76.89
62946;BME280;52164;52.212;-1.010;2023-02-28T08:57:58;102514.65;;;6.67;76.85
62946;BME280;52164;52.212;-1.010;2023-02-28T09:00:23;102516.89;;;6.65;76.55
62946;BME280;52164;52.212;-1.010;2023-02-28T09:02:49;102517.01;;;6.64;76.33
62946;BME280;52164;52.212;-1.010;2023-02-28T09:05:14;102513.54;;;6.66;76.60
62946;BME280;52164;52.212;-1.010;2023-02-28T09:07:39;102511.89;;;6.68;76.48
62946;BME280;52164;52.212;-1.010;2023-02-28T09:10:08;102510.44;;;6.67;76.27
62946;BME280;52164;52.212;-1.010;2023-02-28T09:12:34;102513.68;;;6.69;76.28
62946;BME280;52164;52.212;-1.010;2023-02-28T09:15:00;102518.37;;;6.70;76.13
62946;BME280;52164;52.212;-1.010;2023-02-28T09:17:26;102513.86;;;6.68;75.92
62946;BME280;52164;52.212;-1.010;2023-02-28T09:19:52;102510.84;;;6.65;75.73
62946;BME280;52164;52.212;-1.010;2023-02-28T09:22:18;102507.52;;;6.63;75.70
62946;BME280;52164;52.212;-1.010;2023-02-28T09:24:43;102505.70;;;6.62;75.53
62946;BME280;52164;52.212;-1.010;2023-02-28T09:27:09;102505.48;;;6.61;75.50
62946;BME280;52164;52.212;-1.010;2023-02-28T09:29:34;102505.13;;;6.61;75.67
62946;BME280;52164;52.212;-1.010;2023-02-28T09:32:00;102506.36;;;6.57;75.66
62946;BME280;52164;52.212;-1.010;2023-02-28T09:34:26;102505.89;;;6.54;75.87
62946;BME280;52164;52.212;-1.010;2023-02-28T09:36:53;102504.75;;;6.52;75.58
62946;BME280;52164;52.212;-1.010;2023-02-28T09:39:20;102511.85;;;6.56;75.94
62946;BME280;52164;52.212;-1.010;2023-02-28T09:41:47;102508.08;;;6.59;75.67
62946;BME280;52164;52.212;-1.010;2023-02-28T09:44:18;102510.38;;;6.63;75.96
62946;BME280;52164;52.212;-1.010;2023-02-28T09:46:46;102514.21;;;6.65;75.57
62946;BME280;52164;52.212;-1.010;2023-02-28T09:49:14;102512.73;;;6.67;76.18
62946;BME280;52164;52.212;-1.010;2023-02-28T09:54:12;102515.38;;;6.71;75.77
62946;BME280;52164;52.212;-1.010;2023-02-28T09:56:39;102517.34;;;6.71;75.58
62946;BME280;52164;52.212;-1.010;2023-02-28T10:01:37;102517.66;;;6.70;75.82
62946;BME280;52164;52.212;-1.010;2023-02-28T10:04:08;102520.55;;;6.71;75.89
62946;BME280;52164;52.212;-1.010;2023-02-28T10:06:42;102522.00;;;6.72;76.02
62946;BME280;52164;52.212;-1.010;2023-02-28T10:09:11;102523.69;;;6.74;75.89
62946;BME280;52164;52.212;-1.010;2023-02-28T10:11:38;102524.69;;;6.80;75.94
62946;BME280;52164;52.212;-1.010;2023-02-28T10:14:06;102529.90;;;6.81;75.67
62946;BME280;52164;52.212;-1.010;2023-02-28T10:16:39;102523.11;;;6.84;75.28
62946;BME280;52164;52.212;-1.010;2023-02-28T10:19:23;102523.02;;;6.93;75.36
62946;BME280;52164;52.212;-1.010;2023-02-28T10:26:43;102521.80;;;7.01;75.27
62946;BME280;52164;52.212;-1.010;2023-02-28T10:29:09;102519.04;;;7.00;75.13
62946;BME280;52164;52.212;-1.010;2023-02-28T10:31:35;102515.37;;;6.97;75.19
62946;BME280;52164;52.212;-1.010;2023-02-28T10:34:01;102515.17;;;6.97;75.10
62946;BME280;52164;52.212;-1.010;2023-02-28T10:36:28;102515.90;;;6.97;75.12
62946;BME280;52164;52.212;-1.010;2023-02-28T10:38:55;102510.61;;;6.98;75.19
62946;BME280;52164;52.212;-1.010;2023-02-28T10:41:29;102511.79;;;6.96;75.25
62946;BME280;52164;52.212;-1.010;2023-02-28T10:44:26;102510.23;;;6.93;75.03
62946;BME280;52164;52.212;-1.010;2023-02-28T10:46:41;102505.21;;;6.88;75.23
62946;BME280;52164;52.212;-1.010;2023-02-28T10:49:12;102503.55;;;6.87;75.40
62946;BME280;52164;52.212;-1.010;2023-02-28T10:51:39;102500.92;;;6.84;74.97
62946;BME280;52164;52.212;-1.010;2023-02-28T10:54:05;102500.86;;;6.83;75.37
62946;BME280;52164;52.212;-1.010;2023-02-28T10:56:31;102502.55;;;6.85;75.74
62946;BME280;52164;52.212;-1.010;2023-02-28T11:01:33;102499.40;;;6.90;75.58
62946;BME280;52164;52.212;-1.010;2023-02-28T11:04:00;102497.99;;;6.94;75.42
62946;BME280;52164;52.212;-1.010;2023-02-28T11:06:26;102499.38;;;6.97;75.70
62946;BME280;52164;52.212;-1.010;2023-02-28T11:08:54;102497.81;;;7.01;75.49
62946;BME280;52164;52.212;-1.010;2023-02-28T11:11:21;102499.60;;;7.05;75.23
62946;BME280;52164;52.212;-1.010;2023-02-28T11:13:50;102497.42;;;7.08;75.38
62946;BME280;52164;52.212;-1.010;2023-02-28T11:16:16;102497.63;;;7.13;75.15
62946;BME280;52164;52.212;-1.010;2023-02-28T11:18:43;102493.91;;;7.21;75.11
62946;BME280;52164;52.212;-1.010;2023-02-28T11:21:10;102485.23;;;7.38;74.82
62946;BME280;52164;52.212;-1.010;2023-02-28T11:23:42;102482.02;;;7.57;74.83
62946;BME280;52164;52.212;-1.010;2023-02-28T11:26:08;102482.88;;;7.69;74.39
62946;BME280;52164;52.212;-1.010;2023-02-28T11:28:37;102473.96;;;7.72;74.17
62946;BME280;52164;52.212;-1.010;2023-02-28T11:33:29;102479.80;;;7.67;73.87
62946;BME280;52164;52.212;-1.010;2023-02-28T11:35:57;102479.31;;;7.64;73.79
62946;BME280;52164;52.212;-1.010;2023-02-28T11:38:23;102473.32;;;7.62;73.76
62946;BME280;52164;52.212;-1.010;2023-02-28T11:41:02;102473.07;;;7.59;73.43
62946;BME280;52164;52.212;-1.010;2023-02-28T11:46:18;102469.92;;;7.53;73.48
62946;BME280;52164;52.212;-1.010;2023-02-28T11:51:04;102464.02;;;7.52;73.34
62946;BME280;52164;52.212;-1.010;2023-02-28T11:51:34;102460.07;;;7.59;73.22
62946;BME280;52164;52.212;-1.010;2023-02-28T11:56:22;102453.45;;;7.66;73.11
62946;BME280;52164;52.212;-1.010;2023-02-28T11:56:47;102457.46;;;7.73;72.94
62946;BME280;52164;52.212;-1.010;2023-02-28T11:59:48;102455.38;;;7.78;72.58
62946;BME280;52164;52.212;-1.010;2023-02-28T12:06:56;102445.60;;;7.86;72.04
62946;BME280;52164;52.212;-1.010;2023-02-28T12:11:59;102438.65;;;8.08;72.07
62946;BME280;52164;52.212;-1.010;2023-02-28T12:19:21;102434.88;;;8.78;71.62
62946;BME280;52164;52.212;-1.010;2023-02-28T12:24:07;102429.60;;;8.99;71.05
62946;BME280;52164;52.212;-1.010;2023-02-28T12:27:05;102409.02;;;9.46;70.15
62946;BME280;52164;52.212;-1.010;2023-02-28T12:29:34;102409.10;;;9.70;69.87
62946;BME280;52164;52.212;-1.010;2023-02-28T12:32:06;102404.41;;;9.84;69.38
62946;BME280;52164;52.212;-1.010;2023-02-28T12:35:11;102399.10;;;10.07;68.92
62946;BME280;52164;52.212;-1.010;2023-02-28T12:37:36;102395.23;;;10.31;68.72
62946;BME280;52164;52.212;-1.010;2023-02-28T12:40:06;102388.45;;;10.60;68.18
62946;BME280;52164;52.212;-1.010;2023-02-28T12:42:43;102385.02;;;10.70;67.66
62946;BME280;52164;52.212;-1.010;2023-02-28T12:47:39;102385.70;;;10.45;67.55
62946;BME280;52164;52.212;-1.010;2023-02-28T12:50:08;102386.09;;;10.19;67.37
62946;BME280;52164;52.212;-1.010;2023-02-28T12:52:43;102384.39;;;9.93;67.69
62946;BME280;52164;52.212;-1.010;2023-02-28T12:57:41;102382.12;;;9.47;68.06
62946;BME280;52164;52.212;-1.010;2023-02-28T13:08:44;102381.35;;;9.09;69.01
62946;BME280;52164;52.212;-1.010;2023-02-28T13:09:51;102383.42;;;9.08;68.98
62946;BME280;52164;52.212;-1.010;2023-02-28T13:10:52;102365.54;;;9.15;69.11
62946;BME280;52164;52.212;-1.010;2023-02-28T13:13:27;102360.21;;;9.26;69.19
62946;BME280;52164;52.212;-1.010;2023-02-28T13:15:59;102358.92;;;9.40;68.97
62946;BME280;52164;52.212;-1.010;2023-02-28T13:21:42;102359.73;;;9.81;68.16
62946;BME280;52164;52.212;-1.010;2023-02-28T13:23:56;102355.05;;;10.13;68.13
62946;BME280;52164;52.212;-1.010;2023-02-28T13:29:00;102341.92;;;10.62;66.76
62946;BME280;52164;52.212;-1.010;2023-02-28T13:31:25;102341.02;;;10.55;66.96
62946;BME280;52164;52.212;-1.010;2023-02-28T13:36:36;102341.55;;;10.15;67.60
62946;BME280;52164;52.212;-1.010;2023-02-28T13:39:02;102341.50;;;9.96;67.57
62946;BME280;52164;52.212;-1.010;2023-02-28T13:44:29;102345.86;;;9.65;67.73
62946;BME280;52164;52.212;-1.010;2023-02-28T13:49:28;102342.58;;;9.26;67.89
62946;BME280;52164;52.212;-1.010;2023-02-28T13:52:09;102340.16;;;9.08;68.24
62946;BME280;52164;52.212;-1.010;2023-02-28T13:57:12;102342.42;;;8.91;68.87
62946;BME280;52164;52.212;-1.010;2023-02-28T14:00:52;102335.63;;;8.95;68.94
62946;BME280;52164;52.212;-1.010;2023-02-28T14:05:05;102330.90;;;9.08;68.86
62946;BME280;52164;52.212;-1.010;2023-02-28T14:07:33;102331.16;;;9.16;68.75
62946;BME280;52164;52.212;-1.010;2023-02-28T14:10:04;102328.27;;;9.25;68.84